03:22
Airports
History
Links
Donate
Help keep this website running!
PayPal
Bitcoin
This page is community maintained. The information is intended for PC simulator navigation or reference.
Always use approved charts for navigation.
SDVH
Fazenda Vale Eldorado
Fazenda Vale Eldorado (SDVH)
Bragança Paulista, São Paulo, Brazil
(U)
Lat/Lng:23° 0' 15" S / 46° 38' 5" W
-23.004167 / -46.634722
Elevation:2727'ft / 831mMSL
ID / ICAO:SDVH
Runways:1
Longest:04-22
Asphalt 756m / 2,482ft
Nearby Weather03:00 GMT 2017-09-21
Nearby weather at SBGR, Sao Paulo - Guarulhos located 31.4 nautical miles from SDVH
Altimeter: 30.24
Visibility: 4.3 statute miles
Wind: 2 knots (from 130°)
Temp: 16°c / 61°f
Humidity: 93.8%

METAR: SBGR 210300Z 13002KT 7000 NSC 16/15 Q1024

(Powered by phpweather)
Runway 04 / 22
Dimensions:756.4 x 20.1m 2482' x 66'ft
Surface:Asphalt
Runway 04 [A]Runway 22 [B]
Heading:017°TH 197°TH
Lat:
Lng:
23° 0' 26.63"S
46° 38' 9.1"W
23° 0' 3.37"S
46° 38' 0.9"W
User Notes and Comments
23° 0' 15" S / 46° 38' 5" W
Distance To
Airport ID:
Nearby Airports
(U) Aeroporto Estadual Arthur Siqueira 6.4 NM
SBBP ENE 74°
(U) AEROPORTO ESTADUAL ARTHUR SIQUEIRA 6.4 NM
SDBP ENE 74°
4 Atibaia 9.4 NM
SDTB SSE 155°
(C) Jundiai 23.1 NM
SBJD WSW 237°
(U) Tres Marias 30.6 NM
SDWL WSW 245°
(C) Sao Paulo - Guarulhos 31.4 NM
SBGR ( WX ) SSE 160°
(C) Amarais 31.7 NM
SDAM WNW 288°
VFR Chart
Flight Planning at SkyVector.com